• Join FlightAware (Why Join?)
  • Login
  • US Flag 
08:03PM EDT


 

Airport Tracker/Info


-or-


 

Live Flight TrackerFlight Track Log ✈ FSR103 ✈ 10-Oct-2013 ✈ KMDW - KCMI

Flight Track Log - Related Links

Times and Time Zones

All times are in EDT time to prevent confusion due to time zone crossing. See the FSR103 flight status page for this flight to view local times or setup timezone preferences in your user account.

Time Position Orientation Groundspeed Altitude Reporting Facility
EDT Latitude Longitude Course Direction KTS MPH feet Rate Location/Type
09:46PM 41.7756 -87.6769 186° South 260 299 3,600  Level Chicago Center
09:48PM 41.7128 -87.7164 205° Southwest 258 297 5,900 1,620 Climbing Chicago Center
09:49PM 41.6514 -87.7831 219° Southwest 278 320 7,000 1,980 Climbing Chicago Center
09:50PM 41.5906 -87.8508 220° Southwest 286 329 10,000 2,340 Climbing Chicago Center
09:51PM 41.5244 -87.9156 216° Southwest 297 342 11,900 960 Climbing Chicago Center
09:52PM 41.3458 -87.8875 186° South  Level Estimated
09:52PM 41.4333 -88.0047 216° Southwest 347 399 12,000  Level Chicago Center
09:53PM 41.3511 -88.0369 196° South 371 427 12,000  Level Chicago Center
09:54PM 41.2275 -88.0581 187° South 372 428 12,000  Level Chicago Center
09:55PM 41.1222 -88.0786 188° South 382 440 12,000  Level Chicago Center
09:56PM 41.0183 -88.0978 188° South 380 437 12,000 -180 Level Chicago Center
09:57PM 40.9147 -88.1153 187° South 377 434 11,700 -420 Descending Chicago Center
09:58PM 40.8111 -88.1361 189° South 378 435 11,200 -360 Descending Chicago Center
09:59PM 40.7075 -88.1539 187° South 378 435 11,000 -120 Descending Chicago Center
10:00PM 40.5856 -88.1767 188° South 374 430 11,000  Level Chicago Center
10:01PM 40.4836 -88.2069 193° South 380 437 11,000 -240 Level Chicago Center
10:02PM 40.3956 -88.2475 199° South 354 407 10,600 -1,320 Descending Chicago Center
10:03PM 40.3208 -88.2800 198° South 310 357 8,400 -2,220 Descending Chicago Center
10:04PM 40.2481 -88.3136 199° South 291 335 6,100 -2,280 Descending Chicago Center
10:05PM 40.1781 -88.3461 200° South 278 320 3,800 -1,560 Descending Chicago Center
10:06PM 40.1239 -88.3694 198° South 242 278 3,000 -840 Descending Chicago Center
10:07PM 40.0892 -88.3411 148° Southeast 183 211 2,200 -840 Descending Chicago Center
10:09PM 40.0388 -88.2778 180° South  Level Estimated
10:16PM 40.0388 -88.2778 180° South  Level Estimated
10:17PM 40.0388 -88.2778 180° South  Level Estimated